createdAt,value
2018-12-24T00:01:05.971Z,81.80
2018-12-24T00:03:32.159Z,82.20
2018-12-24T00:05:59.453Z,81.90
2018-12-24T00:08:25.640Z,82.10
2018-12-24T00:10:51.822Z,82.10
2018-12-24T00:13:18.018Z,82.50
2018-12-24T00:15:44.205Z,82.60
2018-12-24T00:18:10.450Z,81.50
2018-12-24T00:20:36.667Z,82.40
2018-12-24T00:23:02.872Z,82.40
2018-12-24T00:25:48.941Z,82.50
2018-12-24T00:28:15.195Z,81.40
2018-12-24T00:30:41.435Z,81.50
2018-12-24T00:33:07.626Z,81.70
2018-12-24T00:35:33.824Z,81.40
2018-12-24T00:38:00.123Z,82.10
2018-12-24T00:40:26.308Z,82.20
2018-12-24T00:42:52.512Z,81.90
2018-12-24T00:45:18.726Z,81.90
2018-12-24T00:47:44.902Z,81.40
2018-12-24T00:50:11.116Z,81.50
2018-12-24T00:52:37.304Z,82.20
2018-12-24T00:55:03.498Z,81.30
2018-12-24T00:57:29.672Z,81.10
2018-12-24T00:59:55.870Z,81.70
2018-12-24T01:02:22.050Z,80.90
2018-12-24T01:04:48.240Z,81.40
2018-12-24T01:07:14.456Z,82.70
2018-12-24T01:09:40.644Z,82.10
2018-12-24T01:12:06.836Z,81.40
2018-12-24T01:14:33.032Z,81.60
2018-12-24T01:16:59.239Z,81.90
2018-12-24T01:19:25.428Z,81.80
2018-12-24T01:21:51.652Z,80.90
2018-12-24T01:24:17.861Z,81.80
2018-12-24T01:26:44.054Z,80.70
2018-12-24T01:29:10.240Z,81.50
2018-12-24T01:31:36.442Z,81.90
2018-12-24T01:34:02.643Z,81.60
2018-12-24T01:36:28.839Z,81.30
2018-12-24T01:38:55.027Z,81.90
2018-12-24T01:41:21.206Z,80.90
2018-12-24T01:43:47.407Z,80.90
2018-12-24T01:46:13.599Z,81.70
2018-12-24T01:48:39.788Z,81.10
2018-12-24T01:51:05.981Z,81.40
2018-12-24T01:53:32.189Z,81.40
2018-12-24T01:55:58.388Z,80.80
2018-12-24T01:58:24.570Z,81.50
2018-12-24T02:00:50.773Z,81.20
2018-12-24T02:03:16.950Z,81.50
2018-12-24T02:05:43.141Z,80.70
2018-12-24T02:08:09.338Z,82.20
2018-12-24T02:10:35.524Z,81.10
2018-12-24T02:13:01.741Z,82.00
2018-12-24T02:15:27.924Z,80.60
2018-12-24T02:17:54.111Z,81.40
2018-12-24T02:20:20.305Z,81.70
2018-12-24T02:22:46.483Z,81.90
2018-12-24T02:25:12.687Z,80.40
2018-12-24T02:27:38.884Z,81.70
2018-12-24T02:30:05.084Z,82.70
2018-12-24T02:32:31.302Z,81.30
2018-12-24T02:34:57.553Z,81.00
2018-12-24T02:37:23.759Z,81.70
2018-12-24T02:39:49.939Z,81.20
2018-12-24T02:42:16.142Z,80.90
2018-12-24T02:44:42.370Z,81.80
2018-12-24T02:47:08.561Z,81.60
2018-12-24T02:49:34.736Z,82.10
2018-12-24T02:52:00.927Z,82.30
2018-12-24T02:54:27.127Z,81.60
2018-12-24T02:56:53.331Z,82.00
2018-12-24T02:59:19.535Z,81.60
2018-12-24T03:01:45.723Z,82.20
2018-12-24T03:04:11.915Z,81.90
2018-12-24T03:06:38.199Z,82.20
2018-12-24T03:09:04.705Z,82.10
2018-12-24T03:11:30.887Z,82.00
2018-12-24T03:13:57.091Z,81.70
2018-12-24T03:16:23.259Z,81.70
2018-12-24T03:18:50.682Z,82.00
2018-12-24T03:21:17.039Z,82.20
2018-12-24T03:23:43.357Z,82.50
2018-12-24T03:26:09.622Z,82.50
2018-12-24T03:28:35.835Z,82.30
2018-12-24T03:31:02.038Z,82.40
2018-12-24T03:33:28.268Z,82.10
2018-12-24T03:35:54.467Z,81.60
2018-12-24T03:38:20.670Z,81.50
2018-12-24T03:40:46.927Z,82.60
2018-12-24T03:43:13.257Z,82.80
2018-12-24T03:45:39.597Z,82.60
2018-12-24T03:48:05.797Z,82.70
2018-12-24T03:50:31.969Z,82.60
2018-12-24T03:52:58.167Z,81.70
2018-12-24T03:55:24.348Z,81.30
2018-12-24T03:57:50.548Z,82.30
2018-12-24T04:00:16.746Z,82.60
2018-12-24T04:02:42.944Z,82.20
2018-12-24T04:05:09.125Z,82.60
2018-12-24T04:07:35.319Z,82.20
2018-12-24T04:10:01.924Z,82.30
2018-12-24T04:12:28.396Z,82.00
2018-12-24T04:14:54.596Z,82.30
2018-12-24T04:17:20.774Z,82.30
2018-12-24T04:19:46.964Z,82.50
2018-12-24T04:22:13.141Z,82.50
2018-12-24T04:24:39.336Z,81.80
2018-12-24T04:27:05.520Z,82.30
2018-12-24T04:29:31.726Z,82.70
2018-12-24T04:31:57.909Z,82.20
2018-12-24T04:34:24.120Z,82.60
2018-12-24T04:36:50.298Z,82.70
2018-12-24T04:39:16.481Z,82.20
2018-12-24T04:41:42.672Z,82.60
2018-12-24T04:44:08.848Z,82.40
2018-12-24T04:46:35.055Z,83.00
2018-12-24T04:49:01.228Z,83.00
2018-12-24T04:51:27.418Z,82.60
2018-12-24T04:53:53.603Z,82.10
2018-12-24T04:56:19.808Z,82.40
2018-12-24T04:58:45.985Z,82.50
2018-12-24T05:01:12.158Z,82.60
2018-12-24T05:03:38.372Z,83.10
2018-12-24T05:06:04.560Z,82.70
2018-12-24T05:08:30.753Z,83.20
2018-12-24T05:10:56.940Z,82.60
2018-12-24T05:13:23.136Z,82.80
2018-12-24T05:15:49.419Z,82.60
2018-12-24T05:18:15.702Z,82.60
2018-12-24T05:20:41.892Z,82.90
2018-12-24T05:23:08.092Z,82.20
2018-12-24T05:25:34.291Z,82.60
2018-12-24T05:28:00.479Z,82.70
2018-12-24T05:30:26.660Z,82.80
2018-12-24T05:32:52.837Z,82.50
2018-12-24T05:35:19.071Z,83.70
2018-12-24T05:37:45.274Z,82.90
2018-12-24T05:40:11.464Z,82.40
2018-12-24T05:42:37.645Z,82.20
2018-12-24T05:45:03.930Z,82.20
2018-12-24T05:47:30.102Z,82.20
2018-12-24T05:49:56.316Z,82.50
2018-12-24T05:52:22.490Z,81.80
2018-12-24T05:54:48.710Z,82.30
2018-12-24T05:57:14.879Z,82.40
2018-12-24T05:59:41.080Z,82.00
2018-12-24T06:02:07.267Z,82.00
2018-12-24T06:04:33.455Z,81.70
2018-12-24T06:06:59.672Z,81.60
2018-12-24T06:09:25.849Z,81.80
2018-12-24T06:11:52.056Z,82.20
2018-12-24T06:14:18.248Z,82.70
2018-12-24T06:16:44.451Z,82.40
2018-12-24T06:19:10.634Z,81.80
2018-12-24T06:21:36.816Z,82.20
2018-12-24T06:24:03.011Z,82.40
2018-12-24T06:26:29.196Z,82.10
2018-12-24T06:28:55.390Z,82.60
2018-12-24T06:31:21.562Z,82.30
2018-12-24T06:33:47.768Z,81.70
2018-12-24T06:36:13.940Z,82.30
2018-12-24T06:38:40.165Z,82.50
2018-12-24T06:41:06.344Z,82.40
2018-12-24T06:43:32.527Z,82.40
2018-12-24T06:45:58.716Z,82.50
2018-12-24T06:48:24.912Z,82.30
2018-12-24T06:50:51.097Z,82.00
2018-12-24T06:53:17.283Z,82.40
2018-12-24T06:55:43.471Z,82.80
2018-12-24T06:58:09.652Z,82.30
2018-12-24T07:00:35.842Z,82.70
2018-12-24T07:03:02.031Z,82.10
2018-12-24T07:05:28.223Z,82.40
2018-12-24T07:07:54.439Z,82.50
2018-12-24T07:10:20.677Z,82.60
2018-12-24T07:12:46.868Z,82.40
2018-12-24T07:15:13.073Z,82.10
2018-12-24T07:17:39.259Z,82.20
2018-12-24T07:20:05.462Z,81.60
2018-12-24T07:22:31.670Z,81.70
2018-12-24T07:24:57.856Z,81.30
2018-12-24T07:27:24.147Z,82.00
2018-12-24T07:29:50.324Z,81.30
2018-12-24T07:32:16.513Z,82.00
2018-12-24T07:34:42.691Z,81.30
2018-12-24T07:37:08.889Z,81.80
2018-12-24T07:39:35.063Z,81.40
2018-12-24T07:42:01.317Z,81.70
2018-12-24T07:44:28.515Z,81.70
2018-12-24T07:46:54.705Z,81.40
2018-12-24T07:49:20.890Z,81.60
2018-12-24T07:51:47.071Z,81.70
2018-12-24T07:54:13.272Z,81.80
2018-12-24T07:56:39.460Z,81.30
2018-12-24T07:59:05.644Z,81.50
2018-12-24T08:01:31.814Z,81.10
2018-12-24T08:03:58.013Z,80.50
2018-12-24T08:06:24.192Z,80.80
2018-12-24T08:08:50.380Z,81.10
2018-12-24T08:11:16.565Z,82.10
2018-12-24T08:13:42.792Z,80.60
2018-12-24T08:16:08.974Z,81.10
2018-12-24T08:18:35.174Z,80.90
2018-12-24T08:21:01.360Z,81.00
2018-12-24T08:23:27.548Z,81.10
2018-12-24T08:25:53.733Z,81.10
2018-12-24T08:28:19.936Z,81.00
2018-12-24T08:30:46.116Z,80.90
2018-12-24T08:33:12.292Z,80.60
2018-12-24T08:35:38.482Z,80.80
2018-12-24T08:38:04.708Z,80.50
2018-12-24T08:40:30.883Z,80.70
2018-12-24T08:42:57.110Z,80.60
2018-12-24T08:45:23.306Z,80.70
2018-12-24T08:47:49.491Z,80.00
2018-12-24T08:50:15.673Z,80.00
2018-12-24T08:52:41.871Z,80.30
2018-12-24T08:55:08.053Z,80.40
2018-12-24T08:57:34.242Z,80.20
2018-12-24T09:00:00.534Z,80.00
2018-12-24T09:02:26.755Z,79.40
2018-12-24T09:04:52.948Z,79.30
2018-12-24T09:07:19.137Z,79.50
2018-12-24T09:09:45.326Z,79.60
2018-12-24T09:12:11.523Z,78.80
2018-12-24T09:14:37.723Z,79.50
2018-12-24T09:17:03.923Z,79.40
2018-12-24T09:19:30.116Z,79.10
2018-12-24T09:21:56.308Z,79.80
2018-12-24T09:24:22.492Z,78.70
2018-12-24T09:26:48.700Z,78.60
2018-12-24T09:29:14.890Z,78.90
2018-12-24T09:31:41.071Z,79.00
2018-12-24T09:34:07.276Z,78.90
2018-12-24T09:36:33.526Z,78.90
2018-12-24T09:38:59.882Z,77.80
2018-12-24T09:41:26.080Z,78.80
2018-12-24T09:43:52.260Z,78.40
2018-12-24T09:46:18.440Z,78.80
2018-12-24T09:48:44.660Z,78.40
2018-12-24T09:51:10.838Z,78.60
2018-12-24T09:53:37.028Z,78.60
2018-12-24T09:56:03.206Z,78.20
2018-12-24T09:58:29.391Z,78.40
2018-12-24T10:00:55.576Z,78.30
2018-12-24T10:03:21.880Z,77.80
2018-12-24T10:05:48.072Z,78.10
2018-12-24T10:08:14.269Z,78.10
2018-12-24T10:10:40.452Z,77.50
2018-12-24T10:13:06.662Z,77.50
2018-12-24T10:15:32.844Z,77.00
2018-12-24T10:17:59.016Z,77.50
2018-12-24T10:20:25.234Z,76.80
2018-12-24T10:22:51.452Z,74.90
2018-12-24T10:25:17.638Z,74.50
2018-12-24T10:27:43.857Z,73.00
2018-12-24T10:30:10.244Z,73.40
2018-12-24T10:32:36.423Z,73.50
2018-12-24T10:35:02.750Z,72.90
2018-12-24T10:37:28.957Z,72.50
2018-12-24T10:39:56.048Z,71.70
2018-12-24T10:42:22.246Z,72.00
2018-12-24T10:44:48.436Z,72.50
2018-12-24T10:47:14.642Z,72.30
2018-12-24T10:49:40.832Z,70.50
2018-12-24T10:52:07.046Z,72.50
2018-12-24T10:54:33.236Z,72.20
2018-12-24T10:56:59.433Z,71.60
2018-12-24T10:59:25.598Z,72.20
2018-12-24T11:01:51.787Z,73.10
2018-12-24T11:04:17.977Z,73.50
2018-12-24T11:06:44.171Z,72.50
2018-12-24T11:09:10.361Z,71.50
2018-12-24T11:11:37.356Z,70.80
2018-12-24T11:14:03.570Z,72.10
2018-12-24T11:16:29.743Z,71.10
2018-12-24T11:18:55.937Z,71.10
2018-12-24T11:21:22.477Z,71.30
2018-12-24T11:23:50.700Z,69.90
2018-12-24T11:26:16.907Z,67.20
2018-12-24T11:28:43.108Z,66.80
2018-12-24T11:31:09.290Z,68.20
2018-12-24T11:33:35.480Z,67.00
2018-12-24T11:36:01.681Z,66.60
2018-12-24T11:38:27.882Z,65.20
2018-12-24T11:40:54.074Z,66.40
2018-12-24T11:43:20.248Z,64.70
2018-12-24T11:45:46.455Z,65.40
2018-12-24T11:48:12.632Z,63.60
2018-12-24T11:50:38.837Z,65.60
2018-12-24T11:53:05.012Z,64.90
2018-12-24T11:55:31.244Z,64.30
2018-12-24T11:57:57.424Z,63.10
2018-12-24T12:00:23.629Z,63.70
2018-12-24T12:02:49.822Z,63.50
2018-12-24T12:05:16.011Z,61.30
2018-12-24T12:07:42.210Z,63.20
2018-12-24T12:10:08.408Z,60.70
2018-12-24T12:12:34.600Z,61.00
2018-12-24T12:15:00.812Z,61.50
2018-12-24T12:17:27.003Z,60.90
2018-12-24T12:19:53.220Z,61.20
2018-12-24T12:22:21.477Z,61.30
2018-12-24T12:24:47.521Z,61.10
2018-12-24T12:27:13.731Z,60.80
2018-12-24T12:29:39.932Z,60.90
2018-12-24T12:32:06.215Z,60.50
2018-12-24T12:34:32.425Z,62.20
2018-12-24T12:36:58.655Z,61.00
2018-12-24T12:39:24.860Z,61.30
2018-12-24T12:41:51.035Z,60.20
2018-12-24T12:44:17.243Z,60.10
2018-12-24T12:46:43.447Z,60.70
2018-12-24T12:49:09.691Z,59.90
2018-12-24T12:51:36.307Z,59.40
2018-12-24T12:54:02.636Z,61.50
2018-12-24T12:56:28.824Z,60.70
2018-12-24T12:58:55.058Z,59.60
2018-12-24T13:01:21.250Z,60.20
2018-12-24T13:03:47.433Z,61.40
2018-12-24T13:06:13.630Z,61.70
2018-12-24T13:08:40.116Z,59.20
2018-12-24T13:11:06.838Z,61.00
2018-12-24T13:13:36.907Z,61.60
2018-12-24T13:16:01.444Z,59.70
2018-12-24T13:18:27.689Z,58.30
2018-12-24T13:20:53.888Z,58.80
2018-12-24T13:23:20.071Z,58.70
2018-12-24T13:25:46.395Z,57.90
2018-12-24T13:28:12.572Z,59.70
2018-12-24T13:30:38.824Z,60.50
2018-12-24T13:33:05.047Z,60.40
2018-12-24T13:35:31.227Z,60.20
2018-12-24T13:37:57.481Z,60.00
2018-12-24T13:40:23.673Z,59.20
2018-12-24T13:42:49.859Z,60.50
2018-12-24T13:45:16.051Z,60.60
2018-12-24T13:47:42.255Z,60.10
2018-12-24T13:50:08.445Z,59.80
2018-12-24T13:52:34.655Z,59.60
2018-12-24T13:55:00.971Z,58.10
2018-12-24T13:57:27.374Z,57.70
2018-12-24T13:59:53.609Z,58.50
2018-12-24T14:02:19.832Z,59.30
2018-12-24T14:04:46.030Z,58.70
2018-12-24T14:07:12.202Z,59.00
2018-12-24T14:09:39.390Z,59.00
2018-12-24T14:12:05.569Z,59.20
2018-12-24T14:14:31.784Z,60.10
2018-12-24T14:16:57.990Z,60.00
2018-12-24T14:19:24.176Z,60.00
2018-12-24T14:21:50.353Z,59.80
2018-12-24T14:24:16.544Z,59.60
2018-12-24T14:26:42.753Z,60.50
2018-12-24T14:29:09.120Z,60.00
2018-12-24T14:31:35.306Z,60.00
2018-12-24T14:34:01.535Z,60.60
2018-12-24T14:36:27.759Z,60.50
2018-12-24T14:38:53.953Z,60.60
2018-12-24T14:41:20.149Z,60.60
2018-12-24T14:43:46.327Z,60.60
2018-12-24T14:46:12.516Z,60.40
2018-12-24T14:48:38.689Z,61.60
2018-12-24T14:51:04.880Z,60.80
2018-12-24T14:53:31.186Z,60.90
2018-12-24T14:55:57.457Z,60.10
2018-12-24T14:58:23.632Z,60.60
2018-12-24T15:00:49.843Z,60.90
2018-12-24T15:03:16.044Z,60.70
2018-12-24T15:05:42.243Z,61.10
2018-12-24T15:08:08.456Z,60.80
2018-12-24T15:10:34.634Z,61.30
2018-12-24T15:13:00.815Z,61.50
2018-12-24T15:15:27.001Z,61.10
2018-12-24T15:17:54.107Z,61.30
2018-12-24T15:20:20.316Z,61.40
2018-12-24T15:22:46.510Z,61.30
2018-12-24T15:25:12.691Z,61.40
2018-12-24T15:27:38.882Z,61.50
2018-12-24T15:30:05.088Z,61.00
2018-12-24T15:32:31.280Z,62.00
2018-12-24T15:34:57.476Z,61.80
2018-12-24T15:37:23.688Z,61.80
2018-12-24T15:39:49.895Z,61.70
2018-12-24T15:42:16.082Z,61.80
2018-12-24T15:44:42.270Z,60.90
2018-12-24T15:47:08.463Z,60.90
2018-12-24T15:49:34.657Z,62.10
2018-12-24T15:52:00.843Z,62.80
2018-12-24T15:54:27.030Z,61.90
2018-12-24T15:56:53.234Z,62.50
2018-12-24T15:59:20.121Z,63.10
2018-12-24T16:01:46.436Z,62.80
2018-12-24T16:04:12.632Z,62.40
2018-12-24T16:06:38.815Z,61.70
2018-12-24T16:09:05.122Z,62.80
2018-12-24T16:11:31.308Z,62.60
2018-12-24T16:13:57.498Z,62.60
2018-12-24T16:16:23.746Z,62.70
2018-12-24T16:18:50.050Z,62.80
2018-12-24T16:21:16.371Z,63.00
2018-12-24T16:23:42.586Z,61.60
2018-12-24T16:26:08.755Z,62.00
2018-12-24T16:28:34.983Z,62.60
2018-12-24T16:31:01.171Z,61.80
2018-12-24T16:33:27.371Z,62.20
2018-12-24T16:35:53.572Z,62.20
2018-12-24T16:38:19.743Z,62.30
2018-12-24T16:40:45.947Z,62.60
2018-12-24T16:43:12.126Z,62.70
2018-12-24T16:45:38.311Z,62.90
2018-12-24T16:48:04.501Z,62.90
2018-12-24T16:50:30.689Z,62.80
2018-12-24T16:52:56.869Z,63.00
2018-12-24T16:55:23.156Z,62.80
2018-12-24T16:57:49.357Z,63.30
2018-12-24T17:00:15.553Z,63.40
2018-12-24T17:02:41.727Z,63.40
2018-12-24T17:05:07.911Z,63.50
2018-12-24T17:07:34.419Z,63.20
2018-12-24T17:10:00.597Z,62.90
2018-12-24T17:12:26.829Z,63.10
2018-12-24T17:14:53.011Z,63.50
2018-12-24T17:17:19.203Z,63.80
2018-12-24T17:19:45.416Z,63.90
2018-12-24T17:22:11.616Z,63.70
2018-12-24T17:24:37.792Z,62.80
2018-12-24T17:27:03.992Z,62.80
2018-12-24T17:29:30.166Z,63.70
2018-12-24T17:31:56.368Z,63.50
2018-12-24T17:34:22.551Z,63.60
2018-12-24T17:36:48.728Z,62.90
2018-12-24T17:39:16.119Z,63.30
2018-12-24T17:41:42.308Z,64.10
2018-12-24T17:44:08.554Z,63.40
2018-12-24T17:46:34.732Z,63.80
2018-12-24T17:49:01.026Z,64.00
2018-12-24T17:51:27.203Z,63.90
2018-12-24T17:53:53.413Z,63.40
2018-12-24T17:56:19.687Z,63.60
2018-12-24T17:58:45.886Z,64.10
2018-12-24T18:01:12.070Z,63.90
2018-12-24T18:03:38.252Z,64.30
2018-12-24T18:06:04.444Z,64.30
2018-12-24T18:08:30.761Z,64.60
2018-12-24T18:10:56.968Z,64.60
2018-12-24T18:13:23.200Z,64.70
2018-12-24T18:15:49.431Z,64.70
2018-12-24T18:18:15.656Z,64.70
2018-12-24T18:20:41.900Z,64.60
2018-12-24T18:23:08.112Z,64.80
2018-12-24T18:25:34.316Z,64.70
2018-12-24T18:28:00.545Z,65.10
2018-12-24T18:30:26.916Z,65.30
2018-12-24T18:32:53.224Z,65.40
2018-12-24T18:35:21.325Z,65.40
2018-12-24T18:37:48.547Z,65.80
2018-12-24T18:40:14.739Z,65.60
2018-12-24T18:42:40.953Z,65.80
2018-12-24T18:45:07.154Z,65.70
2018-12-24T18:47:33.564Z,65.70
2018-12-24T18:49:59.883Z,66.00
2018-12-24T18:52:26.217Z,66.00
2018-12-24T18:54:52.417Z,66.40
2018-12-24T18:57:18.610Z,66.50
2018-12-24T18:59:44.848Z,66.50
2018-12-24T19:02:11.023Z,66.60
2018-12-24T19:04:37.218Z,66.20
2018-12-24T19:07:03.415Z,66.40
2018-12-24T19:09:30.763Z,66.60
2018-12-24T19:11:56.952Z,66.80
2018-12-24T19:14:23.180Z,66.70
2018-12-24T19:16:49.389Z,66.80
2018-12-24T19:19:15.621Z,67.00
2018-12-24T19:21:44.080Z,66.70
2018-12-24T19:24:09.908Z,66.80
2018-12-24T19:26:36.111Z,67.30
2018-12-24T19:29:02.295Z,67.10
2018-12-24T19:31:28.493Z,66.80
2018-12-24T19:33:54.683Z,67.10
2018-12-24T19:36:20.887Z,67.20
2018-12-24T19:38:47.089Z,66.90
2018-12-24T19:41:13.333Z,66.90
2018-12-24T19:43:39.563Z,66.70
2018-12-24T19:46:07.582Z,66.50
2018-12-24T19:48:33.839Z,67.10
2018-12-24T19:51:00.099Z,66.90
2018-12-24T19:53:26.272Z,67.20
2018-12-24T19:55:52.633Z,67.40
2018-12-24T19:58:18.826Z,67.30
2018-12-24T20:00:45.020Z,67.20
2018-12-24T20:03:11.211Z,67.50
2018-12-24T20:05:37.416Z,67.30
2018-12-24T20:08:03.609Z,67.30
2018-12-24T20:10:29.787Z,67.50
2018-12-24T20:12:56.009Z,67.90
2018-12-24T20:15:22.208Z,67.50
2018-12-24T20:17:48.428Z,67.50
2018-12-24T20:20:14.606Z,67.40
2018-12-24T20:22:40.822Z,67.40
2018-12-24T20:25:07.006Z,67.30
2018-12-24T20:27:33.208Z,67.30
2018-12-24T20:29:59.412Z,67.50
2018-12-24T20:32:25.613Z,67.60
2018-12-24T20:34:51.811Z,67.60
2018-12-24T20:37:17.993Z,67.60
2018-12-24T20:39:44.208Z,67.90
2018-12-24T20:42:10.387Z,67.90
2018-12-24T20:44:36.596Z,67.90
2018-12-24T20:47:02.891Z,67.60
2018-12-24T20:49:29.069Z,68.00
2018-12-24T20:51:55.271Z,67.80
2018-12-24T20:54:21.514Z,67.70
2018-12-24T20:56:47.706Z,67.60
2018-12-24T20:59:13.888Z,67.70
2018-12-24T21:01:40.102Z,67.50
2018-12-24T21:04:06.293Z,67.70
2018-12-24T21:06:32.475Z,67.70
2018-12-24T21:08:58.666Z,67.60
2018-12-24T21:11:24.879Z,67.80
2018-12-24T21:13:51.149Z,67.80
2018-12-24T21:16:17.334Z,67.60
2018-12-24T21:18:43.530Z,67.90
2018-12-24T21:21:09.752Z,68.00
2018-12-24T21:23:35.956Z,68.00
2018-12-24T21:26:02.164Z,68.10
2018-12-24T21:28:28.353Z,68.20
2018-12-24T21:30:54.574Z,68.00
2018-12-24T21:33:20.763Z,68.10
2018-12-24T21:35:46.960Z,68.40
2018-12-24T21:38:13.158Z,68.40
2018-12-24T21:40:39.472Z,68.50
2018-12-24T21:43:05.714Z,68.50
2018-12-24T21:45:31.903Z,68.40
2018-12-24T21:47:58.170Z,68.40
2018-12-24T21:50:24.399Z,68.30
2018-12-24T21:52:50.589Z,68.00
2018-12-24T21:55:16.793Z,68.20
2018-12-24T21:57:43.030Z,68.30
2018-12-24T22:00:09.255Z,68.10
2018-12-24T22:02:35.439Z,68.30
2018-12-24T22:05:01.683Z,68.40
2018-12-24T22:07:27.869Z,68.10
2018-12-24T22:09:54.053Z,68.10
2018-12-24T22:12:20.280Z,68.20
2018-12-24T22:14:46.470Z,68.60
2018-12-24T22:17:12.663Z,68.90
2018-12-24T22:19:51.939Z,68.80
2018-12-24T22:22:18.140Z,68.40
2018-12-24T22:24:44.345Z,68.80
2018-12-24T22:27:10.626Z,69.00
2018-12-24T22:29:36.827Z,68.80
2018-12-24T22:32:03.043Z,68.70
2018-12-24T22:34:29.238Z,68.70
2018-12-24T22:36:55.439Z,68.70
2018-12-24T22:39:21.761Z,68.60
2018-12-24T22:41:48.016Z,68.50
2018-12-24T22:44:14.216Z,68.60
2018-12-24T22:46:40.408Z,68.70
2018-12-24T22:49:06.617Z,68.80
2018-12-24T22:51:32.795Z,68.80
2018-12-24T22:53:59.005Z,68.70
2018-12-24T22:56:25.247Z,68.60
2018-12-24T22:58:52.571Z,68.50
2018-12-24T23:01:18.808Z,68.60
2018-12-24T23:03:44.991Z,68.60
2018-12-24T23:06:11.341Z,68.70
2018-12-24T23:08:37.605Z,68.30
2018-12-24T23:11:03.805Z,69.00
2018-12-24T23:13:29.980Z,68.80
2018-12-24T23:15:56.211Z,69.20
2018-12-24T23:18:22.407Z,68.80
2018-12-24T23:20:48.658Z,69.50
2018-12-24T23:23:17.846Z,68.60
2018-12-24T23:25:44.055Z,68.90
2018-12-24T23:28:10.236Z,69.30
2018-12-24T23:30:38.201Z,69.00
2018-12-24T23:33:04.495Z,68.70
2018-12-24T23:35:30.707Z,68.60
2018-12-24T23:37:56.914Z,68.70
2018-12-24T23:40:23.095Z,69.30
2018-12-24T23:42:49.331Z,68.60
2018-12-24T23:45:15.526Z,68.80
2018-12-24T23:47:41.729Z,68.50
2018-12-24T23:50:07.913Z,68.60
2018-12-24T23:52:34.162Z,68.70
2018-12-24T23:55:02.004Z,69.20
2018-12-24T23:57:28.525Z,69.00
2018-12-24T23:59:54.701Z,69.20
